Time;durP1;ratioP1;P1;durP2;ratioP2;P2;SDS_P1;SDS_P2;PMS_P1;PMS_P2;Temp;Humidity;BMP_temperature;BMP_pressure;BME280_temperature;BME280_humidity;BME280_pressure;Samples;Min_cycle;Max_cycle;Signal;HPM_P1;HPM_P2
2021/08/26 00:09:43;;;;;;;9.57;4.27;;;;;;;;;;10394385;28;20256;-70
2021/08/26 00:14:46;;;;;;;8.97;4.57;;;;;;;;;;10382934;28;20245;-69
2021/08/26 00:19:51;;;;;;;9.93;4.57;;;;;;;;;;10390669;28;20225;-70
2021/08/26 00:24:54;;;;;;;10.00;4.20;;;;;;;;;;10393736;28;20251;-70
2021/08/26 00:29:57;;;;;;;10.13;4.60;;;;;;;;;;10395431;28;20245;-69
2021/08/26 00:35:01;;;;;;;9.97;4.43;;;;;;;;;;10391576;28;20237;-68
2021/08/26 00:40:04;;;;;;;9.57;4.77;;;;;;;;;;10394829;28;20330;-68
2021/08/26 00:45:07;;;;;;;10.00;4.87;;;;;;;;;;10394135;28;20324;-69
2021/08/26 00:50:11;;;;;;;10.37;5.03;;;;;;;;;;10391869;28;20218;-69
2021/08/26 00:55:14;;;;;;;10.40;4.87;;;;;;;;;;10392947;28;20701;-69
2021/08/26 01:00:17;;;;;;;9.40;4.90;;;;;;;;;;10389567;28;20676;-69
2021/08/26 01:05:24;;;;;;;12.00;5.30;;;;;;;;;;10392523;28;20225;-70
2021/08/26 01:10:27;;;;;;;10.90;5.40;;;;;;;;;;10400620;28;20707;-69
2021/08/26 01:15:30;;;;;;;10.07;5.10;;;;;;;;;;10401272;28;20228;-69
2021/08/26 01:20:35;;;;;;;13.00;5.53;;;;;;;;;;10402325;28;20550;-68
2021/08/26 01:26:01;;;;;;;10.33;4.97;;;;;;;;;;10402259;28;20218;-69
2021/08/26 01:31:03;;;;;;;10.57;5.43;;;;;;;;;;10400615;28;20193;-70
2021/08/26 01:36:06;;;;;;;9.23;5.13;;;;;;;;;;10398188;28;20226;-68
2021/08/26 01:41:10;;;;;;;11.77;4.93;;;;;;;;;;10397804;28;20281;-70
2021/08/26 01:46:14;;;;;;;10.80;5.10;;;;;;;;;;10393647;28;20229;-69
2021/08/26 01:51:17;;;;;;;10.93;5.17;;;;;;;;;;10400481;28;20233;-70
2021/08/26 01:56:21;;;;;;;8.93;4.93;;;;;;;;;;10392806;28;20292;-69
2021/08/26 02:01:24;;;;;;;10.30;5.00;;;;;;;;;;10392285;28;20202;-69
2021/08/26 02:06:27;;;;;;;9.83;4.93;;;;;;;;;;10395752;28;20494;-68
2021/08/26 02:11:31;;;;;;;12.17;5.43;;;;;;;;;;10396367;28;20563;-68
2021/08/26 02:16:34;;;;;;;10.20;5.57;;;;;;;;;;10398839;28;20313;-69
2021/08/26 02:21:37;;;;;;;10.37;5.10;;;;;;;;;;10407142;28;20233;-69
2021/08/26 02:26:41;;;;;;;9.80;5.10;;;;;;;;;;10395911;28;20245;-70
2021/08/26 02:31:44;;;;;;;10.33;5.40;;;;;;;;;;10396789;28;20198;-68
2021/08/26 02:36:47;;;;;;;9.70;4.80;;;;;;;;;;10399038;28;20205;-69
2021/08/26 02:41:51;;;;;;;10.40;5.00;;;;;;;;;;10397025;28;20229;-70
2021/08/26 02:46:53;;;;;;;12.27;5.70;;;;;;;;;;10394103;28;20550;-70
2021/08/26 02:51:56;;;;;;;10.47;5.50;;;;;;;;;;10396961;28;20272;-69
2021/08/26 02:57:00;;;;;;;10.80;5.27;;;;;;;;;;10410035;28;20297;-69
2021/08/26 03:02:04;;;;;;;9.93;5.13;;;;;;;;;;10396510;28;20217;-69
2021/08/26 03:07:07;;;;;;;11.93;6.03;;;;;;;;;;10400407;28;20206;-67
2021/08/26 03:12:11;;;;;;;9.50;5.00;;;;;;;;;;10395500;28;20263;-68
2021/08/26 03:17:14;;;;;;;9.73;4.93;;;;;;;;;;10396796;28;20324;-68
2021/08/26 03:22:17;;;;;;;10.93;5.40;;;;;;;;;;10399156;28;20217;-69
2021/08/26 03:27:21;;;;;;;10.80;5.30;;;;;;;;;;10396664;28;20292;-69
2021/08/26 03:32:24;;;;;;;11.07;5.07;;;;;;;;;;10394816;28;20256;-70
2021/08/26 03:37:27;;;;;;;9.83;5.20;;;;;;;;;;10413675;28;20467;-71
2021/08/26 03:42:31;;;;;;;10.43;5.73;;;;;;;;;;10394416;28;20293;-69
2021/08/26 03:47:34;;;;;;;9.37;4.83;;;;;;;;;;10405907;28;20273;-70
2021/08/26 03:52:37;;;;;;;10.17;5.27;;;;;;;;;;10395046;28;20238;-69
2021/08/26 03:57:41;;;;;;;10.03;5.20;;;;;;;;;;10392756;28;20697;-69
2021/08/26 04:02:43;;;;;;;12.33;5.20;;;;;;;;;;10394958;28;20221;-70
2021/08/26 04:07:46;;;;;;;11.33;5.23;;;;;;;;;;10389774;28;20209;-69
2021/08/26 04:12:51;;;;;;;11.57;5.57;;;;;;;;;;10392124;28;20414;-70
2021/08/26 04:17:54;;;;;;;10.00;5.20;;;;;;;;;;10395762;28;20194;-68
2021/08/26 04:22:57;;;;;;;10.43;5.20;;;;;;;;;;10394912;28;20221;-70
2021/08/26 04:28:01;;;;;;;11.67;5.10;;;;;;;;;;10391898;28;20289;-70
2021/08/26 04:33:04;;;;;;;10.43;5.70;;;;;;;;;;10389821;28;20673;-69
2021/08/26 04:38:11;;;;;;;9.50;5.30;;;;;;;;;;10394380;28;20662;-67
2021/08/26 04:43:15;;;;;;;11.63;5.57;;;;;;;;;;10392157;28;20209;-69
2021/08/26 04:48:18;;;;;;;11.63;5.80;;;;;;;;;;10399788;28;20296;-68
2021/08/26 04:53:21;;;;;;;10.57;5.60;;;;;;;;;;10404657;28;20573;-70
2021/08/26 04:58:25;;;;;;;10.80;5.63;;;;;;;;;;10402158;28;20197;-69
2021/08/26 05:03:28;;;;;;;11.13;4.93;;;;;;;;;;10406238;28;20276;-68
2021/08/26 05:08:31;;;;;;;11.93;5.43;;;;;;;;;;10403397;28;20297;-68
2021/08/26 05:13:35;;;;;;;11.97;5.50;;;;;;;;;;10400168;28;20218;-69
2021/08/26 05:18:38;;;;;;;10.03;5.43;;;;;;;;;;10400193;28;20615;-69
2021/08/26 05:23:41;;;;;;;11.73;5.97;;;;;;;;;;10398425;28;20302;-69
2021/08/26 05:28:46;;;;;;;9.90;5.63;;;;;;;;;;10401910;28;20210;-70
2021/08/26 05:33:48;;;;;;;10.17;5.73;;;;;;;;;;10401508;28;20241;-69
2021/08/26 05:38:51;;;;;;;10.77;5.77;;;;;;;;;;10400945;28;20704;-69
2021/08/26 05:43:55;;;;;;;10.37;5.37;;;;;;;;;;10398401;28;20210;-70
2021/08/26 05:48:58;;;;;;;9.47;5.33;;;;;;;;;;10400883;28;20271;-69
2021/08/26 05:54:01;;;;;;;11.80;5.83;;;;;;;;;;10397939;28;20272;-70
2021/08/26 05:59:05;;;;;;;11.30;5.17;;;;;;;;;;10403014;28;20186;-68
2021/08/26 06:04:08;;;;;;;10.40;5.20;;;;;;;;;;10399828;28;20289;-69
2021/08/26 06:09:10;;;;;;;11.77;6.13;;;;;;;;;;10397617;28;20244;-71
2021/08/26 06:14:14;;;;;;;9.53;5.07;;;;;;;;;;10398532;28;20214;-69
2021/08/26 06:19:17;;;;;;;11.83;5.63;;;;;;;;;;10395743;28;20286;-70
2021/08/26 06:24:20;;;;;;;10.93;5.43;;;;;;;;;;10399562;28;20708;-70
2021/08/26 06:29:24;;;;;;;9.87;5.03;;;;;;;;;;10397522;28;20202;-68
2021/08/26 06:34:27;;;;;;;10.17;5.50;;;;;;;;;;10400119;28;20246;-70
2021/08/26 06:39:30;;;;;;;9.57;5.03;;;;;;;;;;10399076;28;20244;-69
2021/08/26 06:44:34;;;;;;;9.43;5.30;;;;;;;;;;10393843;28;20303;-68
2021/08/26 06:49:37;;;;;;;10.07;5.23;;;;;;;;;;10402116;28;20252;-70
2021/08/26 06:54:39;;;;;;;11.97;5.50;;;;;;;;;;10400188;28;20225;-71
2021/08/26 06:59:44;;;;;;;12.80;6.40;;;;;;;;;;10400098;28;20676;-71
2021/08/26 07:04:46;;;;;;;9.13;5.30;;;;;;;;;;10397234;28;20271;-71
2021/08/26 07:09:49;;;;;;;10.67;5.17;;;;;;;;;;10399992;28;20245;-69
2021/08/26 07:14:53;;;;;;;10.43;5.63;;;;;;;;;;10392958;28;20267;-69
2021/08/26 07:19:56;;;;;;;11.10;5.40;;;;;;;;;;10400120;28;20713;-69
2021/08/26 07:24:59;;;;;;;10.53;5.87;;;;;;;;;;10398697;28;20249;-70
2021/08/26 07:30:03;;;;;;;11.90;5.90;;;;;;;;;;10398518;28;20590;-68
2021/08/26 07:35:06;;;;;;;11.23;7.00;;;;;;;;;;10397947;28;20251;-69
2021/08/26 07:40:11;;;;;;;11.23;6.20;;;;;;;;;;10395710;28;20697;-68
2021/08/26 07:45:15;;;;;;;13.00;7.50;;;;;;;;;;10394106;28;20680;-69
2021/08/26 07:50:20;;;;;;;14.97;8.90;;;;;;;;;;10396456;28;20248;-68
2021/08/26 07:55:22;;;;;;;13.77;8.37;;;;;;;;;;10395572;28;20225;-69
2021/08/26 08:00:27;;;;;;;15.07;9.00;;;;;;;;;;10397800;28;20503;-68
2021/08/26 08:05:29;;;;;;;15.20;9.97;;;;;;;;;;10394984;28;20217;-70
2021/08/26 08:10:33;;;;;;;15.33;9.60;;;;;;;;;;10399113;28;20297;-70
2021/08/26 08:15:37;;;;;;;16.73;10.20;;;;;;;;;;10395872;28;20224;-68
2021/08/26 08:20:41;;;;;;;19.27;10.03;;;;;;;;;;10402841;28;20601;-70
2021/08/26 08:25:43;;;;;;;16.77;9.50;;;;;;;;;;10405118;28;20213;-70
2021/08/26 08:30:48;;;;;;;15.90;10.57;;;;;;;;;;10406234;28;20271;-71
2021/08/26 08:35:51;;;;;;;14.97;9.80;;;;;;;;;;10400380;28;20300;-71
2021/08/26 08:40:54;;;;;;;14.63;9.63;;;;;;;;;;10401151;28;20259;-70
2021/08/26 08:45:58;;;;;;;13.80;9.57;;;;;;;;;;10402068;28;20245;-70
2021/08/26 08:51:01;;;;;;;17.10;10.53;;;;;;;;;;10402075;28;20293;-71
2021/08/26 08:56:05;;;;;;;17.77;10.73;;;;;;;;;;10402506;28;20275;-70
2021/08/26 09:01:10;;;;;;;16.20;10.27;;;;;;;;;;10403872;28;20269;-70
2021/08/26 09:06:14;;;;;;;17.17;10.47;;;;;;;;;;10403023;28;20585;-71
2021/08/26 09:11:20;;;;;;;16.13;10.87;;;;;;;;;;10401107;28;20751;-69
2021/08/26 09:16:37;;;;;;;16.07;10.20;;;;;;;;;;10400623;28;20216;-70
2021/08/26 09:21:39;;;;;;;18.17;12.00;;;;;;;;;;10400255;28;20241;-71
2021/08/26 09:26:46;;;;;;;19.63;12.07;;;;;;;;;;10402663;28;20564;-70
2021/08/26 09:31:51;;;;;;;18.10;11.80;;;;;;;;;;10403403;28;20279;-68
2021/08/26 09:36:55;;;;;;;16.83;11.83;;;;;;;;;;10400974;28;20325;-70
2021/08/26 09:41:59;;;;;;;17.60;12.10;;;;;;;;;;10398815;28;20198;-70
2021/08/26 09:47:04;;;;;;;18.77;12.30;;;;;;;;;;10399417;28;20236;-71
2021/08/26 09:52:08;;;;;;;18.77;12.50;;;;;;;;;;10404307;28;20336;-69
2021/08/26 09:57:22;;;;;;;18.00;10.67;;;;;;;;;;10401329;28;20612;-68
2021/08/26 10:02:27;;;;;;;18.47;12.30;;;;;;;;;;10400028;28;20210;-70
2021/08/26 10:07:30;;;;;;;17.73;12.80;;;;;;;;;;10400071;28;20576;-69
2021/08/26 10:12:32;;;;;;;17.77;11.73;;;;;;;;;;10400000;28;20689;-68
2021/08/26 10:17:37;;;;;;;17.27;12.27;;;;;;;;;;10399389;28;20186;-70
2021/08/26 10:22:40;;;;;;;16.07;10.43;;;;;;;;;;10402262;28;20240;-70
2021/08/26 10:27:43;;;;;;;16.00;10.53;;;;;;;;;;10393659;28;20203;-70
2021/08/26 10:33:03;;;;;;;19.03;12.10;;;;;;;;;;10402941;28;20306;-68
2021/08/26 10:38:19;;;;;;;18.63;12.10;;;;;;;;;;10396594;28;20251;-70
2021/08/26 10:43:32;;;;;;;17.03;11.43;;;;;;;;;;10396184;28;20228;-71
2021/08/26 10:48:36;;;;;;;18.57;11.13;;;;;;;;;;10394916;28;20213;-69
2021/08/26 10:53:40;;;;;;;18.27;11.20;;;;;;;;;;10401566;28;20292;-70
2021/08/26 10:58:43;;;;;;;16.77;10.60;;;;;;;;;;10401693;28;20201;-70
2021/08/26 11:03:57;;;;;;;16.47;10.90;;;;;;;;;;10398243;28;20240;-70
2021/08/26 11:09:20;;;;;;;14.07;8.17;;;;;;;;;;10399599;28;20627;-70
2021/08/26 11:14:27;;;;;;;13.87;8.63;;;;;;;;;;10399468;28;20711;-71
2021/08/26 11:19:32;;;;;;;15.10;8.23;;;;;;;;;;10396761;28;20635;-68
2021/08/26 11:24:54;;;;;;;14.37;8.47;;;;;;;;;;10394845;28;20206;-68
2021/08/26 11:29:57;;;;;;;14.77;8.23;;;;;;;;;;10401685;28;20741;-68
2021/08/26 11:35:01;;;;;;;14.60;8.40;;;;;;;;;;10399752;28;20213;-71
2021/08/26 11:40:07;;;;;;;15.50;8.77;;;;;;;;;;10399849;28;20225;-69
2021/08/26 11:45:12;;;;;;;12.27;7.90;;;;;;;;;;10399249;28;20209;-70
2021/08/26 11:50:17;;;;;;;12.70;7.50;;;;;;;;;;10397304;28;20272;-69
2021/08/26 11:55:21;;;;;;;14.50;8.47;;;;;;;;;;10411524;28;20256;-69
2021/08/26 12:00:24;;;;;;;13.73;8.70;;;;;;;;;;10400003;28;20186;-69
2021/08/26 12:05:29;;;;;;;15.33;9.53;;;;;;;;;;10398844;28;20508;-70
2021/08/26 12:10:33;;;;;;;17.73;10.50;;;;;;;;;;10400267;28;20209;-69
2021/08/26 12:15:37;;;;;;;15.47;9.53;;;;;;;;;;10394050;28;20213;-69
2021/08/26 12:20:43;;;;;;;16.87;10.63;;;;;;;;;;10396915;28;20279;-68
2021/08/26 12:26:03;;;;;;;14.37;9.67;;;;;;;;;;10393899;28;20670;-69
2021/08/26 12:31:07;;;;;;;14.37;9.97;;;;;;;;;;10397217;28;20229;-70
2021/08/26 12:36:21;;;;;;;13.30;9.10;;;;;;;;;;10397818;28;20456;-70
2021/08/26 12:41:34;;;;;;;13.63;8.40;;;;;;;;;;10395845;28;20217;-70
2021/08/26 12:46:43;;;;;;;12.63;8.47;;;;;;;;;;10394051;28;20209;-71
2021/08/26 12:51:53;;;;;;;10.93;7.50;;;;;;;;;;10396644;28;20238;-70
2021/08/26 12:56:57;;;;;;;8.63;5.03;;;;;;;;;;10394653;28;20438;-68
2021/08/26 13:02:04;;;;;;;8.80;5.07;;;;;;;;;;10393904;28;20766;-70
2021/08/26 13:07:18;;;;;;;8.90;4.60;;;;;;;;;;10402395;28;20296;-69
2021/08/26 13:12:21;;;;;;;9.20;4.80;;;;;;;;;;10405039;28;20246;-70
2021/08/26 13:17:25;;;;;;;7.93;4.63;;;;;;;;;;10403189;28;20558;-70
2021/08/26 13:22:30;;;;;;;8.87;5.00;;;;;;;;;;10403084;28;20860;-70
2021/08/26 13:27:33;;;;;;;8.13;4.97;;;;;;;;;;10400455;28;20197;-68
2021/08/26 13:32:37;;;;;;;9.63;5.60;;;;;;;;;;10402410;28;20641;-69
2021/08/26 13:37:42;;;;;;;9.77;6.10;;;;;;;;;;10404338;28;20936;-70
2021/08/26 13:42:45;;;;;;;9.80;6.00;;;;;;;;;;10401187;28;20439;-70
2021/08/26 13:47:50;;;;;;;9.40;5.40;;;;;;;;;;10399476;28;20277;-69
2021/08/26 13:53:06;;;;;;;8.53;4.47;;;;;;;;;;10401057;28;20290;-69
2021/08/26 13:58:08;;;;;;;6.47;3.57;;;;;;;;;;10414748;28;20194;-68
2021/08/26 14:03:11;;;;;;;5.97;3.30;;;;;;;;;;10401388;28;20217;-72
2021/08/26 14:08:16;;;;;;;6.50;3.20;;;;;;;;;;10404138;28;20193;-70
2021/08/26 14:13:18;;;;;;;5.17;2.90;;;;;;;;;;10399973;28;20669;-69
2021/08/26 14:18:21;;;;;;;7.83;4.73;;;;;;;;;;10396418;28;20201;-69
2021/08/26 14:23:25;;;;;;;5.07;2.73;;;;;;;;;;10402149;28;20217;-69
2021/08/26 14:28:28;;;;;;;5.30;2.67;;;;;;;;;;10402081;28;20221;-70
2021/08/26 14:33:31;;;;;;;6.03;3.17;;;;;;;;;;10401219;28;20717;-69
2021/08/26 14:38:35;;;;;;;4.87;2.70;;;;;;;;;;10396343;28;20218;-69
2021/08/26 14:43:38;;;;;;;4.93;2.73;;;;;;;;;;10394851;28;20233;-69
2021/08/26 14:48:40;;;;;;;5.40;2.80;;;;;;;;;;10394315;28;20216;-69
2021/08/26 14:53:44;;;;;;;4.27;2.50;;;;;;;;;;10396629;28;20708;-70
2021/08/26 14:58:47;;;;;;;6.00;2.80;;;;;;;;;;10396972;28;20522;-70
2021/08/26 15:03:50;;;;;;;6.70;2.93;;;;;;;;;;10398473;28;20289;-69
2021/08/26 15:08:54;;;;;;;6.37;3.40;;;;;;;;;;10397334;28;20272;-70
2021/08/26 15:13:57;;;;;;;7.43;3.67;;;;;;;;;;10395749;28;20639;-69
2021/08/26 15:19:00;;;;;;;6.93;3.77;;;;;;;;;;10395221;28;20192;-69
2021/08/26 15:24:05;;;;;;;7.33;4.13;;;;;;;;;;10395348;28;20244;-67
2021/08/26 15:29:08;;;;;;;8.40;4.83;;;;;;;;;;10396440;28;20628;-69
2021/08/26 15:34:11;;;;;;;8.43;4.60;;;;;;;;;;10391054;28;20717;-69
2021/08/26 15:39:15;;;;;;;8.60;4.93;;;;;;;;;;10394294;28;20236;-69
2021/08/26 15:44:18;;;;;;;8.30;4.00;;;;;;;;;;10397292;28;20711;-71
2021/08/26 15:49:21;;;;;;;7.77;4.50;;;;;;;;;;10392913;28;20658;-70
2021/08/26 15:54:31;;;;;;;7.67;4.13;;;;;;;;;;10393639;28;20546;-69
2021/08/26 15:59:38;;;;;;;7.93;4.60;;;;;;;;;;10394072;28;20195;-68
2021/08/26 16:04:40;;;;;;;8.80;5.43;;;;;;;;;;10391486;28;20214;-67
2021/08/26 16:09:45;;;;;;;9.00;5.37;;;;;;;;;;10390333;28;20677;-69
2021/08/26 16:14:47;;;;;;;9.07;5.10;;;;;;;;;;10389006;28;20221;-70
2021/08/26 16:19:50;;;;;;;8.83;5.07;;;;;;;;;;10392024;28;20281;-69
2021/08/26 16:24:54;;;;;;;8.93;5.60;;;;;;;;;;10392550;28;20678;-68
2021/08/26 16:29:57;;;;;;;9.67;5.20;;;;;;;;;;10387531;28;20277;-68
2021/08/26 16:35:00;;;;;;;7.47;4.70;;;;;;;;;;10392772;28;20217;-71
2021/08/26 16:40:05;;;;;;;7.83;4.30;;;;;;;;;;10393269;28;21203;-70
2021/08/26 16:45:09;;;;;;;8.13;4.87;;;;;;;;;;10394520;28;20210;-67
2021/08/26 16:50:13;;;;;;;8.73;4.03;;;;;;;;;;10405110;28;20267;-67
2021/08/26 16:55:17;;;;;;;7.73;4.10;;;;;;;;;;10400346;28;20669;-69
2021/08/26 17:00:20;;;;;;;7.23;3.67;;;;;;;;;;10401767;28;20260;-70
2021/08/26 17:05:22;;;;;;;7.33;3.70;;;;;;;;;;10400630;28;20260;-69
2021/08/26 17:10:27;;;;;;;6.03;3.20;;;;;;;;;;10399570;28;20249;-70
2021/08/26 17:15:29;;;;;;;6.77;3.27;;;;;;;;;;10395928;28;20305;-68
2021/08/26 17:20:32;;;;;;;7.50;3.70;;;;;;;;;;10397040;28;20217;-66
2021/08/26 17:25:37;;;;;;;6.30;3.23;;;;;;;;;;10394583;28;20210;-70
2021/08/26 17:30:39;;;;;;;7.33;3.60;;;;;;;;;;10398407;28;20205;-69
2021/08/26 17:35:42;;;;;;;7.77;3.80;;;;;;;;;;10398670;28;20231;-68
2021/08/26 17:40:46;;;;;;;7.60;3.70;;;;;;;;;;10395426;28;20194;-69
2021/08/26 17:45:49;;;;;;;9.37;4.20;;;;;;;;;;10396812;28;20332;-70
2021/08/26 17:50:52;;;;;;;8.33;4.30;;;;;;;;;;10395819;28;20562;-70
2021/08/26 17:55:57;;;;;;;9.70;4.93;;;;;;;;;;10397048;28;20224;-68
2021/08/26 18:01:00;;;;;;;10.03;4.90;;;;;;;;;;10399683;28;20277;-68
2021/08/26 18:06:03;;;;;;;10.07;4.87;;;;;;;;;;10398720;28;20217;-69
2021/08/26 18:11:07;;;;;;;10.13;4.93;;;;;;;;;;10395640;28;20240;-67
2021/08/26 18:16:10;;;;;;;9.80;4.90;;;;;;;;;;10392752;28;20213;-69
2021/08/26 18:21:13;;;;;;;9.90;4.97;;;;;;;;;;10399597;28;20284;-69
2021/08/26 18:26:17;;;;;;;10.53;5.07;;;;;;;;;;10396074;28;20766;-68
2021/08/26 18:31:20;;;;;;;10.37;5.53;;;;;;;;;;10396156;28;20267;-70
2021/08/26 18:36:23;;;;;;;10.20;5.53;;;;;;;;;;10397844;28;20221;-69
2021/08/26 18:41:27;;;;;;;11.80;6.30;;;;;;;;;;10392404;28;20277;-69
2021/08/26 18:46:34;;;;;;;11.03;5.43;;;;;;;;;;10393742;28;20348;-66
2021/08/26 18:51:37;;;;;;;11.60;5.97;;;;;;;;;;10399053;28;20313;-69
2021/08/26 18:56:41;;;;;;;11.17;5.87;;;;;;;;;;10397031;28;20279;-71
2021/08/26 19:01:44;;;;;;;11.93;6.27;;;;;;;;;;10397388;28;20613;-72
2021/08/26 19:06:47;;;;;;;12.40;6.83;;;;;;;;;;10391324;28;20292;-68
2021/08/26 19:11:51;;;;;;;13.83;7.07;;;;;;;;;;10394655;28;20248;-68
2021/08/26 19:16:54;;;;;;;11.73;6.13;;;;;;;;;;10392243;28;20212;-68
2021/08/26 19:21:57;;;;;;;12.60;6.40;;;;;;;;;;10392288;28;20224;-68
2021/08/26 19:27:02;;;;;;;14.17;6.63;;;;;;;;;;10394594;28;20189;-68
2021/08/26 19:32:05;;;;;;;10.83;5.20;;;;;;;;;;10394786;28;20197;-68
2021/08/26 19:37:08;;;;;;;11.27;6.20;;;;;;;;;;10412568;28;20236;-70
2021/08/26 19:42:12;;;;;;;12.10;6.27;;;;;;;;;;10395512;28;20233;-68
2021/08/26 19:47:15;;;;;;;10.83;5.87;;;;;;;;;;10391863;28;20202;-70
2021/08/26 19:52:17;;;;;;;11.67;6.03;;;;;;;;;;10397297;28;20304;-70
2021/08/26 19:57:21;;;;;;;10.90;5.23;;;;;;;;;;10389571;28;20265;-70
2021/08/26 20:02:24;;;;;;;12.13;5.73;;;;;;;;;;10392912;28;20232;-70
2021/08/26 20:07:27;;;;;;;11.80;5.90;;;;;;;;;;10392465;28;20191;-70
2021/08/26 20:12:31;;;;;;;13.37;6.53;;;;;;;;;;10394285;28;20245;-68
2021/08/26 20:17:34;;;;;;;11.43;6.23;;;;;;;;;;10393592;28;20202;-72
2021/08/26 20:22:37;;;;;;;13.83;6.10;;;;;;;;;;10393793;28;20317;-67
2021/08/26 20:27:41;;;;;;;13.57;6.17;;;;;;;;;;10394048;28;20252;-70
2021/08/26 20:32:44;;;;;;;11.90;6.10;;;;;;;;;;10391277;28;20226;-69
2021/08/26 20:37:47;;;;;;;10.73;5.53;;;;;;;;;;10389628;28;20725;-71
2021/08/26 20:42:51;;;;;;;10.07;5.20;;;;;;;;;;10391159;28;20210;-69
2021/08/26 20:47:56;;;;;;;12.13;5.50;;;;;;;;;;10390751;28;20252;-71
2021/08/26 20:52:58;;;;;;;14.20;6.93;;;;;;;;;;10396812;28;20237;-70
2021/08/26 20:58:03;;;;;;;9.17;5.00;;;;;;;;;;10389639;28;20273;-68
2021/08/26 21:03:06;;;;;;;10.87;5.00;;;;;;;;;;10397296;28;20583;-69
2021/08/26 21:08:09;;;;;;;13.03;5.50;;;;;;;;;;10396949;28;20273;-69
2021/08/26 21:13:13;;;;;;;9.97;5.13;;;;;;;;;;10395774;28;20220;-70
2021/08/26 21:18:16;;;;;;;11.10;4.90;;;;;;;;;;10394486;28;20277;-71
2021/08/26 21:23:19;;;;;;;11.43;4.60;;;;;;;;;;10391912;28;20301;-72
2021/08/26 21:28:23;;;;;;;11.80;5.23;;;;;;;;;;10395773;28;20236;-70
2021/08/26 21:33:26;;;;;;;12.73;4.93;;;;;;;;;;10405301;28;20342;-71
2021/08/26 21:38:28;;;;;;;12.50;4.90;;;;;;;;;;10401305;28;20221;-69
2021/08/26 21:43:32;;;;;;;9.60;4.50;;;;;;;;;;10424327;28;20230;-68
2021/08/26 21:48:35;;;;;;;10.80;4.50;;;;;;;;;;10402151;28;20202;-70
2021/08/26 21:53:38;;;;;;;9.43;3.97;;;;;;;;;;10397326;28;20293;-69
2021/08/26 21:58:42;;;;;;;10.30;4.40;;;;;;;;;;10402367;28;20229;-69
2021/08/26 22:03:45;;;;;;;11.17;4.53;;;;;;;;;;10400116;28;20294;-69
2021/08/26 22:08:47;;;;;;;9.67;4.23;;;;;;;;;;10403494;28;20236;-69
2021/08/26 22:13:51;;;;;;;10.03;4.30;;;;;;;;;;10394818;28;20653;-69
2021/08/26 22:18:54;;;;;;;9.47;4.43;;;;;;;;;;10397097;28;20201;-69
2021/08/26 22:23:57;;;;;;;9.87;4.47;;;;;;;;;;10392994;28;20641;-69
2021/08/26 22:29:01;;;;;;;10.67;4.37;;;;;;;;;;10398736;28;20361;-69
2021/08/26 22:34:04;;;;;;;10.10;4.30;;;;;;;;;;10396687;28;20210;-70
2021/08/26 22:39:07;;;;;;;9.63;3.83;;;;;;;;;;10398433;28;20229;-70
2021/08/26 22:44:12;;;;;;;9.27;4.53;;;;;;;;;;10411482;28;20312;-69
2021/08/26 22:49:15;;;;;;;9.77;4.30;;;;;;;;;;10400323;28;20557;-69
2021/08/26 22:54:18;;;;;;;9.93;4.20;;;;;;;;;;10415935;28;20249;-70
2021/08/26 22:59:23;;;;;;;9.23;3.80;;;;;;;;;;10398625;28;20827;-69
2021/08/26 23:04:26;;;;;;;9.07;4.20;;;;;;;;;;10396418;28;20300;-69
2021/08/26 23:09:29;;;;;;;10.17;4.13;;;;;;;;;;10397498;28;20284;-68
2021/08/26 23:14:33;;;;;;;10.57;4.20;;;;;;;;;;10393149;28;20213;-69
2021/08/26 23:19:36;;;;;;;10.93;4.07;;;;;;;;;;10396940;28;20707;-71
2021/08/26 23:24:38;;;;;;;9.83;4.60;;;;;;;;;;10397353;28;20250;-69
2021/08/26 23:29:43;;;;;;;8.77;4.07;;;;;;;;;;10400474;28;20228;-70
2021/08/26 23:34:45;;;;;;;11.83;4.77;;;;;;;;;;10397991;28;20283;-69
2021/08/26 23:39:48;;;;;;;10.67;4.13;;;;;;;;;;10400939;28;20272;-70
2021/08/26 23:44:52;;;;;;;9.70;4.17;;;;;;;;;;10394174;28;20645;-67
2021/08/26 23:49:55;;;;;;;9.33;4.13;;;;;;;;;;10396367;28;20198;-69
2021/08/26 23:54:58;;;;;;;9.53;4.07;;;;;;;;;;10392142;28;20241;-69
